Time;durP1;ratioP1;P1;durP2;ratioP2;P2;SDS_P1;SDS_P2;PMS_P1;PMS_P2;Temp;Humidity;BMP_temperature;BMP_pressure;BME280_temperature;BME280_humidity;BME280_pressure;Samples;Min_cycle;Max_cycle;Signal;HPM_P1;HPM_P2
2022/12/24 00:02:19;;;;;;;98.55;23.88;;;7.00;99.90;;;;;;4991656;28;20080;-73
2022/12/24 00:04:45;;;;;;;141.13;28.30;;;7.00;99.90;;;;;;4992264;28;20125;-78
2022/12/24 00:07:11;;;;;;;91.68;24.30;;;7.00;99.90;;;;;;4974660;28;20137;-78
2022/12/24 00:09:36;;;;;;;112.28;25.60;;;7.00;99.90;;;;;;4958440;28;20527;-76
2022/12/24 00:12:02;;;;;;;96.50;24.55;;;7.00;99.90;;;;;;4971969;28;20922;-77
2022/12/24 00:14:28;;;;;;;168.40;28.63;;;7.00;99.90;;;;;;4958017;28;20069;-77
2022/12/24 00:16:54;;;;;;;94.68;25.05;;;7.00;99.90;;;;;;4972818;28;20058;-77
2022/12/24 00:19:20;;;;;;;131.82;27.20;;;7.00;99.90;;;;;;4976990;28;20177;-77
2022/12/24 00:21:45;;;;;;;113.50;26.25;;;7.00;99.90;;;;;;4976561;28;20053;-77
2022/12/24 00:24:11;;;;;;;103.05;24.55;;;7.00;99.90;;;;;;4979542;28;20081;-78
2022/12/24 00:26:37;;;;;;;163.48;28.10;;;7.00;99.90;;;;;;4943691;28;20066;-77
2022/12/24 00:29:02;;;;;;;89.43;23.75;;;7.00;99.90;;;;;;4991924;28;20518;-80
2022/12/24 00:31:28;;;;;;;143.23;27.48;;;7.00;99.90;;;;;;4997238;28;20456;-74
2022/12/24 00:33:54;;;;;;;131.23;25.85;;;7.10;99.90;;;;;;5010903;28;20080;-73
2022/12/24 00:36:20;;;;;;;86.20;23.98;;;7.10;99.90;;;;;;4976391;28;20058;-74
2022/12/24 00:38:46;;;;;;;89.97;24.13;;;7.00;99.90;;;;;;5010938;28;20060;-76
2022/12/24 00:41:27;;;;;;;156.05;28.05;;;7.10;99.90;;;;;;4947536;28;20504;-76
2022/12/24 00:44:04;;;;;;;109.43;24.25;;;7.10;99.90;;;;;;4948636;28;20046;-76
2022/12/24 00:46:31;;;;;;;101.40;24.60;;;7.10;99.90;;;;;;4991446;28;20857;-74
2022/12/24 00:48:57;;;;;;;306.27;35.05;;;7.00;99.90;;;;;;4994397;28;20124;-74
2022/12/24 00:51:23;;;;;;;95.45;24.65;;;7.00;99.90;;;;;;4975591;28;20049;-77
2022/12/24 00:53:49;;;;;;;105.90;25.50;;;7.00;99.90;;;;;;4972737;28;20064;-75
2022/12/24 00:56:16;;;;;;;109.25;28.38;;;7.00;99.90;;;;;;4987499;28;20504;-77
2022/12/24 00:58:41;;;;;;;141.73;30.70;;;7.00;99.90;;;;;;4974455;28;20049;-76
2022/12/24 01:01:07;;;;;;;166.13;53.72;;;7.00;99.90;;;;;;4990384;28;20144;-80
2022/12/24 01:03:36;;;;;;;150.32;45.83;;;7.00;99.90;;;;;;4991937;28;20132;-75
2022/12/24 01:06:17;;;;;;;198.43;36.55;;;7.00;99.90;;;;;;4991386;28;20038;-74
2022/12/24 01:08:43;;;;;;;122.50;26.95;;;7.00;99.90;;;;;;4986298;28;20061;-79
2022/12/24 01:11:11;;;;;;;123.57;26.30;;;7.00;99.90;;;;;;4975540;28;20048;-81
2022/12/24 01:13:37;;;;;;;102.20;30.50;;;7.00;99.90;;;;;;4985381;28;20046;-77
2022/12/24 01:16:11;;;;;;;138.07;38.25;;;6.90;99.90;;;;;;4980734;28;20088;-78
2022/12/24 01:18:37;;;;;;;107.22;27.77;;;7.00;99.90;;;;;;4979887;28;20061;-77
2022/12/24 01:21:03;;;;;;;152.50;28.77;;;7.00;99.90;;;;;;4957945;28;20372;-77
2022/12/24 01:23:30;;;;;;;105.95;25.48;;;7.00;99.90;;;;;;4975410;28;20046;-77
2022/12/24 01:26:00;;;;;;;122.75;27.35;;;7.00;99.90;;;;;;4967412;28;20046;-77
2022/12/24 01:28:26;;;;;;;108.22;26.63;;;7.00;99.90;;;;;;4988278;28;20400;-77
2022/12/24 01:30:52;;;;;;;131.82;28.45;;;6.90;99.90;;;;;;4969794;28;20151;-80
2022/12/24 01:33:18;;;;;;;112.75;27.67;;;6.90;99.90;;;;;;4974039;28;20522;-78
2022/12/24 01:35:43;;;;;;;119.88;27.00;;;7.00;99.90;;;;;;4973809;28;20491;-77
2022/12/24 01:38:11;;;;;;;131.05;29.13;;;7.00;99.90;;;;;;4967177;28;20042;-77
2022/12/24 01:43:27;;;;;;;108.18;26.58;;;7.00;99.90;;;;;;4987947;28;20133;-77
2022/12/24 01:46:02;;;;;;;122.28;28.17;;;6.90;99.90;;;;;;4972345;28;20061;-76
2022/12/24 01:48:44;;;;;;;94.37;24.53;;;7.00;99.90;;;;;;4971012;28;20111;-77
2022/12/24 01:51:12;;;;;;;132.25;28.27;;;6.90;99.90;;;;;;4967111;28;20049;-76
2022/12/24 01:53:40;;;;;;;133.70;28.17;;;7.00;99.90;;;;;;4990318;28;20053;-77
2022/12/24 01:56:08;;;;;;;112.22;26.77;;;7.00;99.90;;;;;;4983822;28;20443;-76
2022/12/24 01:58:36;;;;;;;220.10;32.35;;;7.00;99.90;;;;;;4971623;28;20043;-80
2022/12/24 02:01:02;;;;;;;170.30;31.40;;;7.00;99.90;;;;;;4973685;28;20153;-76
2022/12/24 02:03:28;;;;;;;165.05;30.27;;;7.00;99.90;;;;;;4990448;28;20050;-78
2022/12/24 02:05:56;;;;;;;174.65;30.75;;;7.00;99.90;;;;;;4971086;28;20058;-77
2022/12/24 02:08:22;;;;;;;159.32;31.20;;;7.00;99.90;;;;;;4985564;28;20068;-77
2022/12/24 02:10:49;;;;;;;208.50;33.75;;;7.00;99.90;;;;;;4989925;28;20503;-77
2022/12/24 02:13:18;;;;;;;142.50;30.17;;;6.90;99.90;;;;;;4974650;28;20038;-77
2022/12/24 02:15:54;;;;;;;151.80;31.15;;;7.00;99.90;;;;;;4974753;28;20041;-80
2022/12/24 02:18:28;;;;;;;150.70;30.55;;;7.00;99.90;;;;;;4984134;28;20487;-77
2022/12/24 02:21:12;;;;;;;107.05;27.63;;;7.00;99.90;;;;;;4977983;28;20108;-77
2022/12/24 02:24:02;;;;;;;104.80;28.13;;;7.00;99.90;;;;;;4970690;28;20211;-79
2022/12/24 02:27:06;;;;;;;87.95;27.13;;;7.10;99.90;;;;;;4981886;28;20104;-81
2022/12/24 02:29:56;;;;;;;86.43;25.45;;;7.20;99.90;;;;;;4973970;28;20152;-75
2022/12/24 02:32:34;;;;;;;77.25;24.88;;;7.20;99.90;;;;;;4949156;28;20051;-78
2022/12/24 02:35:25;;;;;;;69.85;23.83;;;7.30;99.90;;;;;;4956712;28;20739;-75
2022/12/24 02:38:22;;;;;;;77.03;24.38;;;7.30;99.90;;;;;;4979611;28;20054;-76
2022/12/24 02:40:57;;;;;;;62.83;22.52;;;7.40;99.90;;;;;;4961987;28;20452;-76
2022/12/24 02:43:31;;;;;;;60.58;21.23;;;7.50;99.90;;;;;;4971427;28;20060;-77
2022/12/24 02:46:14;;;;;;;47.88;18.38;;;7.50;99.90;;;;;;4953409;28;20054;-75
2022/12/24 02:48:43;;;;;;;47.95;18.27;;;7.70;99.90;;;;;;4946410;28;20819;-75
2022/12/24 02:51:09;;;;;;;51.58;19.52;;;7.70;99.90;;;;;;4959624;28;20097;-75
2022/12/24 02:53:37;;;;;;;42.35;17.95;;;7.80;99.90;;;;;;4954696;28;20501;-75
2022/12/24 02:56:25;;;;;;;45.05;18.85;;;7.90;99.90;;;;;;4939310;28;20381;-76
2022/12/24 02:59:17;;;;;;;41.00;16.08;;;8.00;99.90;;;;;;4958695;28;20057;-76
2022/12/24 03:02:03;;;;;;;38.40;16.23;;;8.00;99.90;;;;;;4972739;28;20738;-77
2022/12/24 03:04:53;;;;;;;38.03;14.50;;;8.00;99.90;;;;;;4958819;28;20101;-76
2022/12/24 03:07:40;;;;;;;39.50;13.90;;;8.10;99.90;;;;;;4968130;28;20050;-77
2022/12/24 03:10:30;;;;;;;35.38;12.90;;;8.10;99.90;;;;;;4972762;28;20562;-76
2022/12/24 03:13:01;;;;;;;27.63;10.57;;;8.20;99.90;;;;;;4955362;28;20046;-76
2022/12/24 03:15:28;;;;;;;36.75;11.95;;;8.20;99.90;;;;;;4972458;28;20593;-76
2022/12/24 03:17:59;;;;;;;38.72;12.13;;;8.20;99.90;;;;;;4938291;28;20038;-77
2022/12/24 03:20:33;;;;;;;38.10;12.52;;;8.30;99.90;;;;;;4956398;28;20047;-82
2022/12/24 03:22:59;;;;;;;38.53;11.77;;;8.30;99.90;;;;;;4974495;28;20046;-76
2022/12/24 03:25:26;;;;;;;35.25;10.85;;;8.30;99.90;;;;;;4958680;28;20471;-81
2022/12/24 03:27:56;;;;;;;40.75;11.27;;;8.30;99.90;;;;;;4957135;28;20058;-76
2022/12/24 03:30:21;;;;;;;32.72;7.70;;;8.20;99.90;;;;;;4964656;28;20065;-76
2022/12/24 03:32:47;;;;;;;35.92;8.90;;;8.30;99.90;;;;;;4970732;28;20034;-75
2022/12/24 03:35:13;;;;;;;42.17;8.75;;;8.30;99.90;;;;;;4952104;28;20480;-79
2022/12/24 03:37:39;;;;;;;44.55;8.48;;;8.30;99.90;;;;;;4973878;28;20046;-76
2022/12/24 03:40:06;;;;;;;34.17;6.93;;;8.30;99.90;;;;;;4989391;28;20073;-76
2022/12/24 03:42:32;;;;;;;43.03;7.65;;;8.30;99.90;;;;;;4973187;28;20054;-76
2022/12/24 03:44:58;;;;;;;37.10;7.90;;;8.30;99.90;;;;;;4974048;28;20050;-77
2022/12/24 03:47:23;;;;;;;40.00;7.28;;;8.30;99.90;;;;;;4974528;28;20480;-76
2022/12/24 03:49:49;;;;;;;35.40;6.70;;;8.30;99.90;;;;;;4971571;28;20042;-76
2022/12/24 03:52:15;;;;;;;39.78;6.38;;;8.30;99.90;;;;;;4986229;28;20132;-76
2022/12/24 03:54:40;;;;;;;45.63;6.13;;;8.30;99.90;;;;;;4978077;28;21223;-77
2022/12/24 03:57:06;;;;;;;47.70;6.78;;;8.30;99.90;;;;;;4974772;28;20034;-76
2022/12/24 03:59:32;;;;;;;52.53;6.88;;;8.30;99.90;;;;;;4989313;28;20042;-81
2022/12/24 04:01:57;;;;;;;47.30;7.53;;;8.30;99.90;;;;;;4955441;28;20058;-76
2022/12/24 04:04:23;;;;;;;37.90;6.47;;;8.20;99.90;;;;;;4971839;28;20044;-77
2022/12/24 04:06:49;;;;;;;42.42;6.05;;;8.30;99.90;;;;;;4989894;28;20507;-76
2022/12/24 04:09:15;;;;;;;30.23;5.50;;;8.20;99.90;;;;;;4974863;28;20038;-76
2022/12/24 04:11:40;;;;;;;45.58;6.28;;;8.20;99.90;;;;;;4964647;28;20136;-76
2022/12/24 04:14:06;;;;;;;47.53;7.20;;;8.20;99.90;;;;;;4973148;28;20050;-75
2022/12/24 04:16:31;;;;;;;39.92;5.90;;;8.30;99.90;;;;;;4973895;28;20129;-81
2022/12/24 04:18:57;;;;;;;52.35;6.05;;;8.20;99.90;;;;;;4989018;28;20057;-75
2022/12/24 04:21:23;;;;;;;36.97;5.65;;;8.30;99.90;;;;;;4972940;28;20092;-78
2022/12/24 04:23:49;;;;;;;43.30;6.28;;;8.20;99.90;;;;;;4985488;28;20042;-76
2022/12/24 04:26:14;;;;;;;44.83;6.55;;;8.30;99.90;;;;;;4957102;28;20045;-75
2022/12/24 04:28:41;;;;;;;45.63;5.90;;;8.20;99.90;;;;;;4939865;28;20050;-76
2022/12/24 04:31:13;;;;;;;52.58;6.72;;;8.20;99.90;;;;;;4988045;28;20062;-75
2022/12/24 04:33:38;;;;;;;46.42;5.85;;;8.20;99.90;;;;;;4976889;28;20057;-75
2022/12/24 04:36:05;;;;;;;37.13;6.15;;;8.30;99.90;;;;;;4973196;28;20046;-75
2022/12/24 04:38:32;;;;;;;42.33;5.35;;;8.20;99.90;;;;;;4986057;28;20177;-76
2022/12/24 04:41:00;;;;;;;36.40;5.40;;;8.20;99.90;;;;;;4972063;28;20054;-76
2022/12/24 04:43:27;;;;;;;47.88;5.50;;;8.20;99.90;;;;;;4982138;28;20042;-75
2022/12/24 04:45:53;;;;;;;34.25;4.95;;;8.20;99.90;;;;;;4981875;28;20042;-76
2022/12/24 04:48:19;;;;;;;48.35;6.18;;;8.20;99.90;;;;;;4981322;28;20077;-76
2022/12/24 04:50:45;;;;;;;41.70;6.60;;;8.20;99.90;;;;;;4954906;28;20144;-75
2022/12/24 04:53:13;;;;;;;49.42;6.45;;;8.20;99.90;;;;;;4969423;28;20045;-76
2022/12/24 04:55:43;;;;;;;41.58;6.68;;;8.20;99.90;;;;;;4989473;28;20046;-81
2022/12/24 04:58:09;;;;;;;42.30;5.22;;;8.20;99.90;;;;;;4969808;28;20050;-75
2022/12/24 05:00:35;;;;;;;46.75;6.10;;;8.20;99.90;;;;;;4950253;28;20047;-75
2022/12/24 05:03:00;;;;;;;41.15;5.47;;;8.20;99.90;;;;;;4966744;28;20061;-76
2022/12/24 05:05:26;;;;;;;38.03;6.18;;;8.30;99.90;;;;;;4958587;28;20043;-79
2022/12/24 05:07:53;;;;;;;48.90;6.20;;;8.30;99.90;;;;;;4989248;28;20046;-77
2022/12/24 05:10:18;;;;;;;45.33;6.90;;;8.30;99.90;;;;;;4988708;28;20042;-76
2022/12/24 05:12:44;;;;;;;46.65;7.10;;;8.30;99.90;;;;;;4997548;28;20158;-76
2022/12/24 05:15:10;;;;;;;50.33;6.97;;;8.30;99.90;;;;;;4988960;28;20104;-80
2022/12/24 05:17:35;;;;;;;53.17;6.72;;;8.30;99.90;;;;;;4970270;28;20043;-75
2022/12/24 05:20:01;;;;;;;46.45;5.80;;;8.30;99.90;;;;;;4969887;28;20039;-77
2022/12/24 05:27:55;;;;;;;37.55;5.82;;;8.30;99.90;;;;;;4971539;28;20081;-77
2022/12/24 05:30:21;;;;;;;58.38;6.00;;;8.30;99.90;;;;;;4983440;28;20058;-78
2022/12/24 05:32:46;;;;;;;43.55;6.70;;;8.30;99.90;;;;;;4952080;28;20513;-75
2022/12/24 05:35:12;;;;;;;51.03;7.68;;;8.20;99.90;;;;;;4971097;28;20246;-75
2022/12/24 05:37:38;;;;;;;57.00;6.20;;;8.20;99.90;;;;;;4971063;28;20062;-76
2022/12/24 05:40:04;;;;;;;47.58;6.53;;;8.30;99.90;;;;;;4953020;28;20042;-75
2022/12/24 05:42:30;;;;;;;58.72;7.50;;;8.20;99.90;;;;;;4956291;28;20050;-77
2022/12/24 05:44:56;;;;;;;52.92;6.68;;;8.20;99.90;;;;;;4966439;28;20503;-75
2022/12/24 05:47:21;;;;;;;45.88;6.45;;;8.10;99.90;;;;;;4970513;28;20186;-76
2022/12/24 05:49:47;;;;;;;50.65;7.03;;;8.10;99.90;;;;;;4953903;28;20050;-76
2022/12/24 05:52:12;;;;;;;59.85;6.13;;;8.00;99.90;;;;;;4970353;28;20081;-77
2022/12/24 05:54:38;;;;;;;57.20;7.28;;;8.00;99.90;;;;;;4969731;28;20046;-79
2022/12/24 05:57:04;;;;;;;50.10;6.40;;;8.00;99.90;;;;;;4948362;28;20225;-76
2022/12/24 05:59:29;;;;;;;49.63;6.65;;;8.00;99.90;;;;;;4982861;28;20100;-75
2022/12/24 06:01:55;;;;;;;57.53;7.85;;;8.00;99.90;;;;;;4995920;28;20047;-77
2022/12/24 06:04:21;;;;;;;53.80;8.13;;;8.00;99.90;;;;;;4969153;28;20044;-77
2022/12/24 06:06:47;;;;;;;55.85;6.60;;;8.00;99.90;;;;;;4967021;28;20117;-81
2022/12/24 06:09:13;;;;;;;48.80;6.15;;;8.00;99.90;;;;;;4969072;28;20053;-75
2022/12/24 06:11:39;;;;;;;48.20;6.45;;;8.00;99.90;;;;;;4970716;28;20050;-75
2022/12/24 06:14:05;;;;;;;57.72;7.28;;;8.00;99.90;;;;;;4970338;28;20046;-75
2022/12/24 06:16:30;;;;;;;66.05;7.10;;;8.10;99.90;;;;;;4981189;28;20620;-76
2022/12/24 06:18:56;;;;;;;54.58;7.72;;;8.10;99.90;;;;;;4965983;28;20054;-75
2022/12/24 06:21:22;;;;;;;52.15;7.38;;;8.00;99.90;;;;;;4987636;28;20038;-75
2022/12/24 06:23:48;;;;;;;54.92;7.68;;;8.00;99.90;;;;;;4968279;28;20047;-79
2022/12/24 06:26:16;;;;;;;56.15;7.28;;;8.00;99.90;;;;;;4972091;28;20050;-75
2022/12/24 06:28:43;;;;;;;54.72;6.93;;;8.00;99.90;;;;;;4985540;28;20429;-75
2022/12/24 06:31:12;;;;;;;52.60;6.40;;;8.00;99.90;;;;;;4990543;28;20066;-75
2022/12/24 06:33:38;;;;;;;52.53;6.82;;;8.00;99.90;;;;;;4992266;28;20050;-77
2022/12/24 06:36:09;;;;;;;57.28;7.10;;;8.00;99.90;;;;;;4953563;28;20057;-75
2022/12/24 06:38:35;;;;;;;56.47;7.40;;;8.00;99.90;;;;;;4975460;28;20043;-75
2022/12/24 06:41:05;;;;;;;43.00;6.82;;;8.00;99.90;;;;;;4975577;28;20392;-77
2022/12/24 06:43:33;;;;;;;57.05;8.98;;;7.90;99.90;;;;;;4975794;28;20043;-76
2022/12/24 06:46:00;;;;;;;58.40;8.15;;;7.90;99.90;;;;;;4957317;28;20069;-77
2022/12/24 06:48:25;;;;;;;58.10;8.95;;;7.90;99.90;;;;;;4975227;28;20054;-76
2022/12/24 06:50:51;;;;;;;77.00;9.05;;;7.80;99.90;;;;;;4976047;28;20369;-78
2022/12/24 06:53:17;;;;;;;54.97;8.43;;;7.80;99.90;;;;;;4991087;28;20053;-76
2022/12/24 06:55:43;;;;;;;66.25;9.05;;;7.70;99.90;;;;;;4976176;28;20078;-76
2022/12/24 06:58:09;;;;;;;82.00;10.23;;;7.70;99.90;;;;;;4955800;28;20050;-73
2022/12/24 07:00:35;;;;;;;65.82;10.57;;;7.70;99.90;;;;;;4987686;28;20081;-76
2022/12/24 07:03:01;;;;;;;60.63;9.10;;;7.80;99.90;;;;;;4973866;28;20057;-75
2022/12/24 07:05:28;;;;;;;56.53;9.27;;;7.80;99.90;;;;;;4991769;28;20403;-79
2022/12/24 07:07:54;;;;;;;63.95;8.68;;;7.80;99.90;;;;;;4979211;28;20586;-74
2022/12/24 07:10:20;;;;;;;69.30;9.23;;;8.00;99.90;;;;;;4989805;28;20074;-74
2022/12/24 07:12:47;;;;;;;54.53;9.65;;;8.00;99.90;;;;;;4985261;28;20411;-74
2022/12/24 07:15:13;;;;;;;66.30;8.55;;;8.10;99.90;;;;;;4986485;28;20054;-74
2022/12/24 07:17:39;;;;;;;64.80;8.60;;;8.10;99.90;;;;;;4990545;28;20054;-74
2022/12/24 07:20:06;;;;;;;65.82;8.60;;;8.20;99.90;;;;;;4989800;28;20085;-73
2022/12/24 07:22:32;;;;;;;60.50;7.97;;;8.30;99.90;;;;;;4990790;28;20065;-74
2022/12/24 07:24:58;;;;;;;61.08;8.57;;;8.30;99.90;;;;;;4986130;28;20122;-79
2022/12/24 07:27:23;;;;;;;54.22;8.63;;;8.30;99.90;;;;;;4986679;28;20042;-74
2022/12/24 07:29:49;;;;;;;64.47;9.95;;;8.30;99.90;;;;;;4986609;28;20046;-74
2022/12/24 07:32:15;;;;;;;56.53;8.52;;;8.30;99.90;;;;;;4990864;28;20057;-75
2022/12/24 07:34:40;;;;;;;53.72;7.25;;;8.30;99.90;;;;;;4972755;28;20072;-77
2022/12/24 07:37:07;;;;;;;57.42;8.88;;;8.30;99.90;;;;;;4995066;28;20049;-75
2022/12/24 07:39:33;;;;;;;59.58;7.28;;;8.30;99.90;;;;;;4973168;28;20058;-76
2022/12/24 07:41:58;;;;;;;47.47;7.13;;;8.40;99.90;;;;;;4989911;28;20042;-81
2022/12/24 07:44:24;;;;;;;55.38;8.85;;;8.40;99.90;;;;;;4989423;28;20134;-76
2022/12/24 07:46:50;;;;;;;51.97;8.52;;;8.40;99.90;;;;;;4988172;28;20562;-75
2022/12/24 07:49:16;;;;;;;58.15;7.82;;;8.40;99.90;;;;;;4957300;28;20557;-77
2022/12/24 07:51:41;;;;;;;64.63;7.72;;;8.50;99.90;;;;;;4989892;28;20050;-76
2022/12/24 07:54:07;;;;;;;52.53;7.13;;;8.40;99.90;;;;;;4973789;28;20061;-75
2022/12/24 07:56:33;;;;;;;53.25;7.60;;;8.40;99.90;;;;;;4974012;28;20563;-75
2022/12/24 07:58:59;;;;;;;58.80;8.68;;;8.50;99.90;;;;;;4960363;28;20123;-75
2022/12/24 08:01:25;;;;;;;53.65;8.07;;;8.50;99.90;;;;;;4955518;28;20096;-75
2022/12/24 08:03:53;;;;;;;56.20;7.45;;;8.40;99.90;;;;;;4973819;28;20069;-77
2022/12/24 08:06:19;;;;;;;57.33;7.88;;;8.50;99.90;;;;;;4973750;28;20153;-75
2022/12/24 08:08:45;;;;;;;49.85;6.82;;;8.50;99.90;;;;;;4976180;28;20054;-76
2022/12/24 08:11:11;;;;;;;61.58;7.40;;;8.50;99.90;;;;;;4972569;28;20049;-76
2022/12/24 08:13:37;;;;;;;55.13;7.63;;;8.50;99.90;;;;;;4989984;28;20045;-73
2022/12/24 08:16:04;;;;;;;53.03;8.20;;;8.50;99.90;;;;;;4990222;28;20125;-75
2022/12/24 08:18:29;;;;;;;54.30;7.65;;;8.50;99.90;;;;;;4996320;28;20121;-74
2022/12/24 08:20:55;;;;;;;43.00;7.38;;;8.50;99.90;;;;;;4978629;28;20563;-75
2022/12/24 08:23:21;;;;;;;54.67;8.05;;;8.60;99.90;;;;;;5010211;28;20573;-74
2022/12/24 08:25:47;;;;;;;56.10;7.63;;;8.60;99.90;;;;;;4991630;28;20104;-79
2022/12/24 08:28:15;;;;;;;49.90;7.50;;;8.60;99.90;;;;;;5000819;28;20570;-75
2022/12/24 08:30:42;;;;;;;65.13;7.13;;;8.60;99.90;;;;;;4973355;28;20058;-75
2022/12/24 08:33:08;;;;;;;41.30;5.50;;;8.70;99.90;;;;;;4991182;28;20109;-80
2022/12/24 08:35:33;;;;;;;49.50;7.50;;;8.70;99.90;;;;;;4973631;28;20184;-74
2022/12/24 08:37:59;;;;;;;53.55;6.78;;;8.70;99.90;;;;;;4957931;28;20516;-74
2022/12/24 08:40:25;;;;;;;52.38;8.00;;;8.70;99.90;;;;;;4985240;28;20105;-73
2022/12/24 08:42:51;;;;;;;58.45;7.60;;;8.70;99.90;;;;;;4986646;28;20401;-76
2022/12/24 08:45:17;;;;;;;49.13;6.90;;;8.70;99.90;;;;;;4980572;28;20403;-76
2022/12/24 08:47:42;;;;;;;57.47;9.00;;;8.70;99.90;;;;;;4973116;28;20463;-81
2022/12/24 08:50:09;;;;;;;51.80;8.95;;;8.70;99.90;;;;;;4972830;28;20057;-79
2022/12/24 08:52:35;;;;;;;58.00;7.47;;;8.70;99.90;;;;;;4956302;28;20058;-81
2022/12/24 08:55:02;;;;;;;56.55;8.15;;;8.70;99.90;;;;;;4973146;28;20394;-77
2022/12/24 08:57:27;;;;;;;39.28;6.93;;;8.70;99.90;;;;;;4963153;28;20054;-79
2022/12/24 08:59:53;;;;;;;51.58;7.90;;;8.70;99.90;;;;;;4968863;28;20480;-77
2022/12/24 09:02:19;;;;;;;50.75;8.00;;;8.70;99.90;;;;;;4970966;28;20042;-76
2022/12/24 09:04:45;;;;;;;57.65;8.25;;;8.80;99.90;;;;;;4977760;28;20590;-76
2022/12/24 09:07:11;;;;;;;51.67;7.95;;;8.80;99.90;;;;;;4967757;28;20050;-82
2022/12/24 09:09:37;;;;;;;54.22;8.43;;;8.80;99.90;;;;;;4989729;28;20049;-78
2022/12/24 09:12:07;;;;;;;51.58;9.32;;;8.80;99.90;;;;;;4989398;28;20050;-79
2022/12/24 09:14:33;;;;;;;63.25;8.63;;;8.90;99.90;;;;;;4976695;28;20635;-78
2022/12/24 09:16:58;;;;;;;45.67;7.97;;;8.90;99.90;;;;;;4986813;28;20050;-77
2022/12/24 09:19:26;;;;;;;49.25;9.10;;;8.90;99.90;;;;;;4954731;28;20038;-77
2022/12/24 09:21:51;;;;;;;57.90;9.77;;;9.00;99.90;;;;;;4976775;28;20129;-77
2022/12/24 09:24:17;;;;;;;63.78;8.38;;;9.10;99.90;;;;;;4951879;28;20125;-78
2022/12/24 09:26:47;;;;;;;69.55;10.13;;;9.10;99.90;;;;;;4987276;28;20054;-77
2022/12/24 09:29:14;;;;;;;58.45;9.45;;;9.20;99.90;;;;;;4986993;28;20066;-81
2022/12/24 09:31:40;;;;;;;58.80;9.15;;;9.20;99.90;;;;;;4980935;28;20058;-81
2022/12/24 09:34:07;;;;;;;53.88;9.88;;;9.20;99.90;;;;;;4961700;28;20839;-77
2022/12/24 09:36:33;;;;;;;56.72;9.82;;;9.20;99.90;;;;;;4982533;28;20054;-77
2022/12/24 09:38:59;;;;;;;54.85;10.43;;;9.20;99.90;;;;;;4982660;28;20114;-78
2022/12/24 09:41:42;;;;;;;56.22;9.23;;;9.20;99.90;;;;;;4951666;28;20153;-77
2022/12/24 09:44:23;;;;;;;48.42;9.32;;;9.20;99.90;;;;;;4986564;28;20132;-77
2022/12/24 09:46:50;;;;;;;51.72;9.73;;;9.20;99.90;;;;;;4969260;28;20054;-77
2022/12/24 09:49:26;;;;;;;62.97;8.85;;;9.20;99.90;;;;;;4981243;28;20109;-78
2022/12/24 09:52:03;;;;;;;59.42;10.05;;;9.30;99.90;;;;;;4988793;28;20043;-77
2022/12/24 09:54:33;;;;;;;56.92;8.82;;;9.20;99.90;;;;;;4982663;28;20377;-77
2022/12/24 09:57:15;;;;;;;54.35;8.57;;;9.20;99.90;;;;;;4975891;28;20046;-77
2022/12/24 09:59:44;;;;;;;42.10;7.20;;;9.20;99.90;;;;;;4981265;28;20046;-81
2022/12/24 10:02:13;;;;;;;40.17;6.53;;;9.10;99.90;;;;;;4985368;28;20484;-77
2022/12/24 10:04:40;;;;;;;34.13;6.13;;;9.10;99.90;;;;;;4980802;28;20078;-77
2022/12/24 10:07:36;;;;;;;31.63;5.10;;;9.00;99.90;;;;;;4968679;28;20352;-79
2022/12/24 10:10:24;;;;;;;36.10;5.87;;;9.00;99.90;;;;;;4985239;28;20089;-79
2022/12/24 10:13:08;;;;;;;26.88;3.63;;;8.90;99.90;;;;;;4953515;28;20042;-80
2022/12/24 10:15:39;;;;;;;24.95;3.95;;;8.90;99.90;;;;;;4983071;28;20058;-79
2022/12/24 10:18:08;;;;;;;28.02;4.30;;;8.80;99.90;;;;;;4985335;28;20100;-77
2022/12/24 10:20:56;;;;;;;29.20;4.25;;;8.80;99.90;;;;;;4982985;28;20074;-78
2022/12/24 10:23:27;;;;;;;28.17;4.25;;;8.80;99.90;;;;;;4971802;28;20527;-79
2022/12/24 10:26:17;;;;;;;32.47;5.20;;;8.80;99.90;;;;;;4990411;28;20053;-76
2022/12/24 10:29:26;;;;;;;34.60;5.90;;;8.90;99.90;;;;;;4986166;28;20039;-77
2022/12/24 10:31:58;;;;;;;28.30;5.28;;;9.00;99.90;;;;;;4909238;28;20067;-78
2022/12/24 10:34:30;;;;;;;32.78;5.82;;;9.00;99.90;;;;;;4916210;29;20058;-83
2022/12/24 10:36:57;;;;;;;31.25;7.13;;;9.10;99.90;;;;;;4958832;28;20066;-78
2022/12/24 10:39:25;;;;;;;30.67;5.60;;;9.10;99.90;;;;;;4967045;28;20050;-80
2022/12/24 10:41:54;;;;;;;35.72;6.55;;;9.20;99.90;;;;;;4984205;28;20046;-78
2022/12/24 10:44:26;;;;;;;40.75;7.40;;;9.20;99.90;;;;;;4973977;28;20483;-78
2022/12/24 10:46:53;;;;;;;40.85;7.50;;;9.30;99.90;;;;;;4986138;28;20043;-77
2022/12/24 10:49:25;;;;;;;41.63;7.15;;;9.30;99.90;;;;;;4987975;28;20069;-76
2022/12/24 10:52:04;;;;;;;57.83;8.60;;;9.30;99.90;;;;;;4969653;28;20053;-78
2022/12/24 10:54:37;;;;;;;38.42;7.63;;;9.40;99.90;;;;;;4982196;28;20046;-78
2022/12/24 10:57:04;;;;;;;42.53;7.20;;;9.40;99.90;;;;;;4965688;28;20050;-78
2022/12/24 10:59:41;;;;;;;44.03;7.88;;;9.50;99.90;;;;;;4968401;28;20062;-79
2022/12/24 11:02:31;;;;;;;40.10;6.43;;;9.50;99.90;;;;;;4979286;28;20069;-77
2022/12/24 11:04:59;;;;;;;50.20;7.70;;;9.50;99.90;;;;;;4979522;28;20554;-82
2022/12/24 11:07:25;;;;;;;50.97;7.65;;;9.50;99.90;;;;;;4971213;28;20137;-80
2022/12/24 11:09:59;;;;;;;42.50;6.47;;;9.40;99.90;;;;;;4971774;28;20081;-80
2022/12/24 11:12:32;;;;;;;33.25;5.63;;;9.50;99.90;;;;;;4989425;28;20084;-80
2022/12/24 11:15:25;;;;;;;38.33;5.68;;;9.50;99.90;;;;;;4975575;28;20157;-81
2022/12/24 11:18:02;;;;;;;49.92;5.68;;;9.60;99.90;;;;;;4990945;28;20690;-82
2022/12/24 11:20:30;;;;;;;43.63;5.55;;;9.60;99.90;;;;;;4975449;28;20322;-82
2022/12/24 11:22:56;;;;;;;35.60;5.07;;;9.50;99.90;;;;;;4969826;28;20055;-81
2022/12/24 11:25:36;;;;;;;43.70;6.15;;;9.50;99.90;;;;;;4976608;28;20046;-81
2022/12/24 11:28:36;;;;;;;38.72;6.05;;;9.50;99.90;;;;;;4981925;28;20047;-80
2022/12/24 11:31:18;;;;;;;32.22;5.47;;;9.50;99.90;;;;;;4928631;28;20839;-81
2022/12/24 11:33:49;;;;;;;37.55;4.72;;;9.50;99.90;;;;;;4981463;28;20079;-82
2022/12/24 11:36:20;;;;;;;33.72;5.68;;;9.50;99.90;;;;;;4983882;28;20042;-81
2022/12/24 11:38:53;;;;;;;43.70;7.30;;;9.50;99.90;;;;;;4963798;28;20112;-78
2022/12/24 11:41:19;;;;;;;33.75;4.85;;;9.50;99.90;;;;;;4973829;28;20061;-78
2022/12/24 11:43:51;;;;;;;38.22;5.28;;;9.50;99.90;;;;;;4968199;28;20051;-81
2022/12/24 11:46:38;;;;;;;38.15;5.82;;;9.50;99.90;;;;;;4961618;28;20114;-81
2022/12/24 11:49:23;;;;;;;43.22;5.20;;;9.40;99.90;;;;;;4975819;28;20749;-82
2022/12/24 11:52:21;;;;;;;33.38;4.85;;;9.40;99.90;;;;;;4968485;28;20136;-82
2022/12/24 11:55:03;;;;;;;39.42;6.35;;;9.40;99.90;;;;;;4962059;28;20050;-79
2022/12/24 11:57:52;;;;;;;35.13;5.28;;;9.50;99.90;;;;;;4971227;28;20081;-79
2022/12/24 12:00:18;;;;;;;33.53;5.90;;;9.50;99.90;;;;;;4970132;28;20047;-80
2022/12/24 12:02:48;;;;;;;34.90;6.93;;;9.50;99.90;;;;;;4968498;28;20077;-78
2022/12/24 12:05:18;;;;;;;47.45;6.72;;;9.50;99.90;;;;;;4971660;28;20153;-79
2022/12/24 12:07:47;;;;;;;33.30;5.60;;;9.50;99.90;;;;;;4969524;28;20076;-78
2022/12/24 12:10:24;;;;;;;36.70;5.07;;;9.40;99.90;;;;;;4959706;28;20081;-79
2022/12/24 12:13:01;;;;;;;41.05;6.95;;;9.50;99.90;;;;;;4988171;28;20077;-79
2022/12/24 12:15:59;;;;;;;37.78;6.03;;;9.50;99.90;;;;;;4968115;28;20053;-79
2022/12/24 12:18:31;;;;;;;39.25;5.45;;;9.50;99.90;;;;;;4970410;28;20531;-79
2022/12/24 12:21:21;;;;;;;30.80;5.18;;;9.40;99.90;;;;;;4988497;28;20045;-79
2022/12/24 12:23:52;;;;;;;39.13;6.10;;;9.40;99.90;;;;;;4971898;28;20073;-79
2022/12/24 12:26:26;;;;;;;36.70;5.82;;;9.40;99.90;;;;;;4989686;28;20146;-80
2022/12/24 12:29:21;;;;;;;37.17;5.57;;;9.30;99.90;;;;;;4982174;28;20042;-78
2022/12/24 12:31:52;;;;;;;35.40;4.97;;;9.40;99.90;;;;;;4972920;28;20058;-81
2022/12/24 12:34:38;;;;;;;33.08;5.25;;;9.40;99.90;;;;;;4987835;28;20059;-80
2022/12/24 12:37:19;;;;;;;30.08;4.85;;;9.40;99.90;;;;;;4985788;28;20050;-79
2022/12/24 12:39:45;;;;;;;36.15;5.15;;;9.40;99.90;;;;;;4971171;28;20088;-79
2022/12/24 12:42:38;;;;;;;35.97;5.97;;;9.30;99.90;;;;;;4954710;28;20077;-79
2022/12/24 12:45:35;;;;;;;29.73;5.22;;;9.30;99.90;;;;;;4968051;28;20054;-79
2022/12/24 12:48:13;;;;;;;33.38;4.60;;;9.20;99.90;;;;;;4965803;28;20132;-80
2022/12/24 12:51:01;;;;;;;34.25;5.07;;;9.10;99.90;;;;;;4973710;28;20054;-81
2022/12/24 12:53:56;;;;;;;35.50;4.45;;;9.10;99.90;;;;;;4963066;28;20058;-79
2022/12/24 12:56:27;;;;;;;32.90;4.97;;;9.20;99.90;;;;;;4981675;28;20120;-79
2022/12/24 12:59:07;;;;;;;28.45;4.65;;;9.20;99.90;;;;;;4972066;28;20050;-80
2022/12/24 13:01:41;;;;;;;29.17;5.03;;;9.20;99.90;;;;;;4976204;28;20057;-82
2022/12/24 13:04:37;;;;;;;35.50;5.32;;;9.10;99.90;;;;;;4959854;28;20046;-79
2022/12/24 13:07:09;;;;;;;29.00;5.45;;;9.20;99.90;;;;;;4983428;28;20133;-81
2022/12/24 13:09:58;;;;;;;25.13;4.35;;;9.20;99.90;;;;;;4983851;28;20157;-78